Time;durP1;ratioP1;P1;durP2;ratioP2;P2;SDS_P1;SDS_P2;PMS_P1;PMS_P2;Temp;Humidity;BMP_temperature;BMP_pressure;BME280_temperature;BME280_humidity;BME280_pressure;Samples;Min_cycle;Max_cycle;Signal;HPM_P1;HPM_P2
2022/04/14 00:02:11;;;;;;;;;8.67;8.67;;;;;17.13;61.49;101616.22;5017860;28;46192;-66
2022/04/14 00:04:36;;;;;;;;;10.33;9.00;;;;;16.97;61.90;101586.63;5018972;28;45261;-65
2022/04/14 00:07:03;;;;;;;;;8.67;6.33;;;;;17.08;61.68;101610.50;5018547;28;45382;-65
2022/04/14 00:09:28;;;;;;;;;8.67;6.67;;;;;17.05;61.86;101608.16;5019355;28;45456;-66
2022/04/14 00:11:57;;;;;;;;;11.00;8.00;;;;;16.93;61.68;101590.66;5018862;28;46052;-66
2022/04/14 00:14:22;;;;;;;;;9.00;7.67;;;;;17.01;61.58;101606.78;5017521;28;45314;-66
2022/04/14 00:16:47;;;;;;;;;6.00;6.00;;;;;16.98;62.08;101604.41;5017769;28;45271;-66
2022/04/14 00:19:13;;;;;;;;;5.67;5.67;;;;;16.77;61.59;101580.69;5018729;28;45542;-65
2022/04/14 00:21:39;;;;;;;;;7.33;7.33;;;;;16.93;61.89;101609.44;5018368;28;46771;-66
2022/04/14 00:24:04;;;;;;;;;4.00;4.00;;;;;16.85;62.04;101598.69;5018981;28;45390;-65
2022/04/14 00:26:30;;;;;;;;;8.33;6.33;;;;;16.90;61.94;101602.56;5018815;28;45480;-65
2022/04/14 00:28:56;;;;;;;;;7.67;7.67;;;;;16.72;62.12;101578.50;5018923;28;45269;-65
2022/04/14 00:31:21;;;;;;;;;7.67;7.67;;;;;16.76;62.08;101586.22;5018281;28;46726;-66
2022/04/14 00:33:47;;;;;;;;;8.33;6.67;;;;;16.86;62.59;101608.44;5018759;28;45528;-66
2022/04/14 00:36:12;;;;;;;;;8.33;8.33;;;;;16.85;62.29;101609.44;5018489;28;45540;-66
2022/04/14 00:38:37;;;;;;;;;6.33;6.33;;;;;16.75;62.21;101592.63;5018101;28;45570;-66
2022/04/14 00:41:03;;;;;;;;;12.00;8.33;;;;;16.77;62.51;101587.91;5016927;28;47602;-65
2022/04/14 00:43:33;;;;;;;;;5.67;5.67;;;;;16.81;62.54;101600.84;5018248;28;45458;-66
2022/04/14 00:46:03;;;;;;;;;10.33;8.67;;;;;16.77;62.54;101587.91;5018588;28;45371;-66
2022/04/14 00:48:30;;;;;;;;;7.33;7.33;;;;;16.78;62.75;101597.66;5017510;28;45607;-66
2022/04/14 00:50:56;;;;;;;;;8.00;8.00;;;;;16.77;62.89;101602.19;5018078;28;47506;-66
2022/04/14 00:53:22;;;;;;;;;10.67;9.33;;;;;16.70;63.06;101596.63;5018307;28;45444;-64
2022/04/14 00:55:49;;;;;;;;;10.67;9.67;;;;;16.74;63.25;101602.50;5018411;28;45278;-65
2022/04/14 00:58:15;;;;;;;;;11.33;10.67;;;;;16.73;63.21;101607.03;5018579;28;45396;-66
2022/04/14 01:00:41;;;;;;;;;9.33;8.33;;;;;16.42;63.47;101565.66;5016765;28;48944;-66
2022/04/14 01:03:06;;;;;;;;;9.67;8.67;;;;;16.68;63.18;101608.53;5018262;28;45295;-66
2022/04/14 01:05:33;;;;;;;;;7.33;7.33;;;;;16.68;63.53;101609.38;5017491;28;45230;-65
2022/04/14 01:07:59;;;;;;;;;8.33;8.33;;;;;16.67;63.45;101602.34;5017905;28;45475;-65
2022/04/14 01:10:25;;;;;;;;;11.67;10.33;;;;;16.65;63.63;101604.31;5017518;28;45984;-66
2022/04/14 01:12:52;;;;;;;;;12.33;8.33;;;;;16.51;63.60;101586.13;5018023;28;45391;-65
2022/04/14 01:15:18;;;;;;;;;11.00;10.33;;;;;16.64;63.63;101604.47;5018004;28;46162;-65
2022/04/14 01:17:43;;;;;;;;;10.00;9.67;;;;;16.57;63.79;101601.59;5017988;28;45298;-65
2022/04/14 01:20:11;;;;;;;;;11.00;10.00;;;;;16.62;63.68;101606.50;5017538;28;46463;-65
2022/04/14 01:22:56;;;;;;;;;9.33;9.33;;;;;15.91;63.95;101497.66;5017322;28;45533;-66
2022/04/14 01:25:24;;;;;;;;;10.33;8.67;;;;;16.60;63.90;101606.63;5017839;28;45514;-66
2022/04/14 01:27:55;;;;;;;;;8.00;8.00;;;;;16.38;64.41;101596.47;5106025;27;1327329;-66
2022/04/14 01:30:22;;;;;;;;;11.00;10.33;;;;;16.15;64.45;101542.53;5135714;27;45299;-65
2022/04/14 01:32:48;;;;;;;;;15.00;10.33;;;;;16.59;64.28;101609.47;5124633;27;45479;-66
2022/04/14 01:35:14;;;;;;;;;10.00;9.33;;;;;16.59;64.13;101610.31;5114886;27;45283;-66
2022/04/14 01:37:39;;;;;;;;;15.67;15.33;;;;;16.24;64.69;101557.69;5114407;27;46608;-65
2022/04/14 01:40:06;;;;;;;;;12.00;12.00;;;;;16.47;64.54;101603.56;5115076;27;45256;-66
2022/04/14 01:42:31;;;;;;;;;13.33;12.33;;;;;16.54;64.79;101617.19;5114808;27;45298;-67
2022/04/14 01:44:56;;;;;;;;;14.00;10.67;;;;;16.54;64.64;101625.22;5115062;27;45562;-65
2022/04/14 01:47:22;;;;;;;;;13.33;12.33;;;;;16.43;64.85;101604.91;5125978;27;46020;-66
2022/04/14 01:49:47;;;;;;;;;14.00;10.00;;;;;16.52;64.55;101620.03;5133824;27;45424;-66
2022/04/14 01:52:13;;;;;;;;;13.33;12.33;;;;;16.16;64.92;101554.09;5114812;27;45308;-66
2022/04/14 01:54:38;;;;;;;;;12.00;12.00;;;;;16.50;64.84;101611.28;5114907;27;45639;-65
2022/04/14 01:57:04;;;;;;;;;17.33;14.00;;;;;16.45;64.94;101612.78;5114488;27;46375;-67
2022/04/14 01:59:30;;;;;;;;;14.00;12.33;;;;;16.47;65.17;101608.94;5114459;27;45635;-66
2022/04/14 02:01:55;;;;;;;;;13.67;13.33;;;;;16.44;64.88;101609.25;5121270;27;45547;-65
2022/04/14 02:04:20;;;;;;;;;9.00;9.00;;;;;16.41;64.99;101606.88;5135328;27;45370;-65
2022/04/14 02:06:46;;;;;;;;;10.33;10.33;;;;;16.42;65.11;101606.75;5134854;27;46350;-66
2022/04/14 02:09:12;;;;;;;;;14.00;12.00;;;;;16.40;65.23;101595.31;5133902;27;45500;-66
2022/04/14 02:11:38;;;;;;;;;15.00;13.67;;;;;16.43;65.10;101603.06;5134671;27;45540;-66
2022/04/14 02:14:03;;;;;;;;;15.33;12.67;;;;;16.31;65.34;101587.38;5135307;27;45287;-66
2022/04/14 02:16:29;;;;;;;;;11.33;9.67;;;;;16.05;65.20;101536.47;5123711;27;46396;-67
2022/04/14 02:18:54;;;;;;;;;12.00;10.67;;;;;16.31;65.65;101582.88;5114211;27;45545;-66
2022/04/14 02:21:20;;;;;;;;;14.33;13.33;;;;;16.37;65.66;101598.31;5114042;27;45364;-66
2022/04/14 02:23:45;;;;;;;;;15.33;12.00;;;;;16.37;65.55;101597.47;5095592;27;45208;-65
2022/04/14 02:26:10;;;;;;;;;19.33;15.67;;;;;16.27;65.36;101577.97;5113666;27;46078;-66
2022/04/14 02:28:36;;;;;;;;;15.67;15.00;;;;;16.30;65.54;101583.03;5113910;27;45391;-66
2022/04/14 02:31:01;;;;;;;;;13.67;13.00;;;;;16.15;65.50;101555.09;5125576;27;45457;-66
2022/04/14 02:33:26;;;;;;;;;11.67;11.33;;;;;16.40;65.54;101597.97;5116414;27;45417;-65
2022/04/14 02:35:52;;;;;;;;;15.00;14.33;;;;;16.33;65.43;101588.06;5134787;27;45832;-65
2022/04/14 02:38:17;;;;;;;;;17.00;14.33;;;;;16.36;65.51;101599.31;5125770;27;45203;-65
2022/04/14 02:40:43;;;;;;;;;15.67;14.67;;;;;16.29;65.67;101586.72;5120808;27;45355;-66
2022/04/14 02:43:08;;;;;;;;;10.33;10.00;;;;;16.33;65.74;101596.97;5121154;27;45309;-65
2022/04/14 02:45:33;;;;;;;;;15.67;15.00;;;;;16.35;65.66;101603.00;5110170;27;46483;-65
2022/04/14 02:47:59;;;;;;;;;17.00;14.33;;;;;16.36;65.72;101609.22;5095700;27;45407;-66
2022/04/14 02:50:24;;;;;;;;;14.00;14.00;;;;;15.98;65.88;101540.78;5120523;27;45332;-66
2022/04/14 02:52:51;;;;;;;;;13.67;12.33;;;;;16.33;65.52;101599.63;5120791;27;45581;-65
2022/04/14 02:55:17;;;;;;;;;17.33;17.33;;;;;16.36;65.89;101609.22;5120265;27;48118;-66
2022/04/14 02:57:43;;;;;;;;;17.00;15.00;;;;;16.34;65.68;101606.69;5101959;27;45318;-66
2022/04/14 03:00:09;;;;;;;;;17.00;15.33;;;;;16.24;65.77;101587.19;5119896;27;45409;-66
2022/04/14 03:02:36;;;;;;;;;14.33;14.33;;;;;16.34;65.85;101605.84;5120700;27;45438;-66
2022/04/14 03:05:02;;;;;;;;;14.33;13.33;;;;;16.14;65.93;101567.69;5120167;27;46449;-66
2022/04/14 03:07:28;;;;;;;;;16.67;15.00;;;;;16.32;65.79;101600.66;5101509;27;45969;-65
2022/04/14 03:09:54;;;;;;;;;15.33;15.33;;;;;15.88;66.05;101534.69;5102727;27;45532;-65
2022/04/14 03:12:20;;;;;;;;;14.33;13.00;;;;;16.32;65.95;101610.53;5101196;27;45308;-66
2022/04/14 03:14:49;;;;;;;;;18.33;15.33;;;;;16.18;65.73;101579.78;5081114;27;47996;-66
2022/04/14 03:17:15;;;;;;;;;14.00;12.33;;;;;16.33;65.88;101602.31;5099582;27;45220;-65
2022/04/14 03:19:40;;;;;;;;;15.33;14.33;;;;;16.33;65.82;101605.00;5099591;27;45573;-66
2022/04/14 03:22:06;;;;;;;;;16.00;15.00;;;;;16.34;65.51;101603.16;5099851;27;45470;-66
2022/04/14 03:24:32;;;;;;;;;12.33;11.67;;;;;16.27;65.84;101600.28;5084491;27;48244;-65
2022/04/14 03:26:57;;;;;;;;;15.33;15.33;;;;;16.34;65.60;101613.91;5119590;27;45515;-65
2022/04/14 03:29:22;;;;;;;;;12.67;12.67;;;;;16.31;65.57;101614.22;5120190;27;45395;-65
2022/04/14 03:31:48;;;;;;;;;15.33;14.00;;;;;16.32;65.43;101608.69;5101694;27;45540;-66
2022/04/14 03:34:13;;;;;;;;;14.00;12.00;;;;;16.35;65.41;101620.94;5119841;27;46867;-65
2022/04/14 03:36:39;;;;;;;;;18.33;16.00;;;;;16.28;65.67;101606.50;5119772;27;45482;-65
2022/04/14 03:39:04;;;;;;;;;14.33;10.00;;;;;16.36;65.62;101619.94;5109503;27;45289;-66
2022/04/14 03:41:30;;;;;;;;;14.33;14.00;;;;;16.13;65.86;101593.66;5099476;27;45415;-65
2022/04/14 03:43:55;;;;;;;;;11.33;10.00;;;;;16.30;65.59;101612.53;5099036;27;46492;-65
2022/04/14 03:46:21;;;;;;;;;17.67;15.33;;;;;16.32;65.66;101624.78;5098716;27;45323;-66
2022/04/14 03:48:46;;;;;;;;;15.67;14.00;;;;;16.32;65.50;101626.63;5098894;27;45349;-66
2022/04/14 03:51:14;;;;;;;;;14.67;14.67;;;;;16.30;65.69;101620.59;5098141;27;45315;-65
2022/04/14 03:53:43;;;;;;;;;13.33;13.33;;;;;15.93;65.63;101564.56;5080656;27;46548;-64
2022/04/14 03:56:09;;;;;;;;;17.33;16.33;;;;;16.26;65.54;101630.81;5098650;27;45319;-66
2022/04/14 03:58:35;;;;;;;;;11.67;11.67;;;;;16.22;65.58;101629.44;5080316;27;45327;-65
2022/04/14 04:01:00;;;;;;;;;14.33;13.33;;;;;15.80;65.84;101560.44;5098774;27;45564;-65
2022/04/14 04:03:26;;;;;;;;;20.33;14.67;;;;;16.21;65.85;101634.94;5098521;27;47528;-66
2022/04/14 04:05:52;;;;;;;;;12.00;12.00;;;;;16.16;66.08;101635.44;5098183;27;45527;-66
2022/04/14 04:08:18;;;;;;;;;14.67;13.67;;;;;16.17;65.78;101636.28;5102247;27;45377;-65
2022/04/14 04:10:44;;;;;;;;;13.67;13.00;;;;;16.19;66.00;101634.28;5098370;27;45291;-65
2022/04/14 04:13:09;;;;;;;;;16.33;16.33;;;;;16.19;66.00;101636.94;5097996;27;45600;-65
2022/04/14 04:15:35;;;;;;;;;15.67;13.33;;;;;16.19;65.91;101645.00;5098297;27;45270;-65
2022/04/14 04:18:01;;;;;;;;;19.00;18.67;;;;;15.85;65.82;101589.50;5098327;27;45226;-66
2022/04/14 04:20:26;;;;;;;;;16.00;16.00;;;;;16.16;65.90;101630.06;5098629;27;45235;-65
2022/04/14 04:22:52;;;;;;;;;18.67;16.33;;;;;15.96;66.03;101602.63;5098239;27;47442;-66
2022/04/14 04:25:17;;;;;;;;;18.33;17.67;;;;;15.99;66.26;101596.94;5080353;27;45435;-66
2022/04/14 04:27:42;;;;;;;;;22.00;19.67;;;;;16.02;66.44;101612.72;5097790;27;45215;-66
2022/04/14 04:30:09;;;;;;;;;14.67;14.67;;;;;16.04;66.35;101621.47;5079985;27;45167;-66
2022/04/14 04:32:34;;;;;;;;;17.00;15.67;;;;;15.70;66.17;101564.25;5098156;27;46415;-65
2022/04/14 04:35:01;;;;;;;;;21.33;19.33;;;;;15.94;66.16;101604.63;5097491;27;45465;-65
2022/04/14 04:37:26;;;;;;;;;15.67;14.33;;;;;15.91;66.27;101607.63;5098154;27;45485;-66
2022/04/14 04:39:52;;;;;;;;;21.33;17.00;;;;;16.03;66.15;101624.31;5098199;27;45347;-66
2022/04/14 04:42:17;;;;;;;;;19.67;19.33;;;;;16.00;66.24;101633.47;5097688;27;45351;-67
2022/04/14 04:44:43;;;;;;;;;20.67;20.67;;;;;15.95;66.36;101643.84;5097715;27;45157;-65
2022/04/14 04:47:08;;;;;;;;;18.67;18.33;;;;;15.93;66.25;101648.53;5097780;27;45584;-65
2022/04/14 04:49:33;;;;;;;;;19.00;17.33;;;;;15.56;66.32;101587.06;5115917;27;45193;-65
2022/04/14 04:52:00;;;;;;;;;22.67;20.67;;;;;15.84;66.78;101645.97;5118325;27;46970;-66
2022/04/14 04:54:25;;;;;;;;;20.33;20.33;;;;;15.86;66.48;101666.25;5118634;27;45374;-68
2022/04/14 04:56:51;;;;;;;;;21.00;19.00;;;;;15.43;66.58;101584.81;5118562;27;45243;-66
2022/04/14 04:59:16;;;;;;;;;22.00;20.00;;;;;15.81;66.45;101657.81;5100212;27;45452;-66
2022/04/14 05:01:42;;;;;;;;;22.33;21.67;;;;;15.89;66.58;101665.94;5116032;27;46461;-68
2022/04/14 05:04:09;;;;;;;;;23.67;21.67;;;;;15.76;66.81;101649.41;5079133;27;45411;-66
2022/04/14 05:06:34;;;;;;;;;22.67;20.33;;;;;15.65;66.34;101631.75;5097844;27;45338;-65
2022/04/14 05:09:03;;;;;;;;;25.67;22.67;;;;;15.81;66.37;101652.44;5085555;27;45513;-65
2022/04/14 05:11:28;;;;;;;;;20.33;20.33;;;;;15.83;66.34;101650.47;5117590;27;46008;-66
2022/04/14 05:13:54;;;;;;;;;28.67;25.67;;;;;15.86;66.37;101668.94;5118178;27;45540;-65
2022/04/14 05:16:19;;;;;;;;;30.00;25.67;;;;;15.85;66.42;101664.56;5118424;27;45233;-67
2022/04/14 05:18:45;;;;;;;;;27.33;25.67;;;;;15.86;66.30;101666.25;5117704;27;45179;-66
2022/04/14 05:21:10;;;;;;;;;23.33;19.33;;;;;15.83;66.53;101650.47;5118186;27;45960;-66
2022/04/14 05:23:35;;;;;;;;;22.33;19.67;;;;;15.61;66.41;101618.78;5117957;27;45480;-65
2022/04/14 05:26:01;;;;;;;;;25.67;24.33;;;;;15.86;66.51;101671.63;5092365;27;45877;-67
2022/04/14 05:28:26;;;;;;;;;29.00;23.33;;;;;15.60;66.34;101625.13;5097313;27;45363;-66
2022/04/14 05:30:52;;;;;;;;;25.67;23.00;;;;;15.15;66.32;101553.72;5097276;27;45739;-67
2022/04/14 05:33:17;;;;;;;;;23.67;22.33;;;;;15.89;66.37;101673.97;5097427;27;45399;-68
2022/04/14 05:35:44;;;;;;;;;26.33;21.67;;;;;15.92;66.51;101675.50;5083205;27;45548;-66
2022/04/14 05:38:10;;;;;;;;;22.67;21.67;;;;;15.89;66.31;101671.31;5097744;27;45462;-67
2022/04/14 05:40:41;;;;;;;;;20.00;20.00;;;;;15.84;66.46;101662.88;5101285;27;46451;-67
2022/04/14 05:43:28;;;;;;;;;24.00;19.67;;;;;15.96;66.36;101685.75;5097961;27;45446;-66
2022/04/14 05:45:59;;;;;;;;;23.33;22.33;;;;;15.89;66.36;101678.50;5089824;27;45529;-66
2022/04/14 05:48:24;;;;;;;;;27.33;23.00;;;;;15.96;66.14;101683.06;5099369;27;45617;-66
2022/04/14 05:50:50;;;;;;;;;27.67;25.33;;;;;16.02;66.20;101693.19;5107649;27;47629;-67
2022/04/14 05:53:17;;;;;;;;;26.67;24.00;;;;;15.69;66.07;101633.09;5097157;27;45235;-67
2022/04/14 05:55:44;;;;;;;;;28.00;25.33;;;;;15.69;66.02;101622.38;5097765;27;45391;-67
2022/04/14 05:58:12;;;;;;;;;27.33;27.00;;;;;15.68;66.10;101617.19;5079087;27;45451;-66
2022/04/14 06:00:38;;;;;;;;;27.33;24.67;;;;;16.12;66.04;101680.53;5097575;27;45557;-66
2022/04/14 06:03:03;;;;;;;;;24.33;21.33;;;;;16.22;65.69;101690.28;5096352;27;45501;-67
2022/04/14 06:05:30;;;;;;;;;27.00;26.00;;;;;16.25;65.92;101698.06;5115028;27;45483;-67
2022/04/14 06:07:56;;;;;;;;;26.00;24.33;;;;;16.25;65.70;101692.69;5117201;27;45186;-68
2022/04/14 06:10:23;;;;;;;;;23.33;22.33;;;;;16.22;65.70;101688.47;5097868;27;46763;-67
2022/04/14 06:12:49;;;;;;;;;28.33;24.67;;;;;16.31;65.70;101694.72;5117540;27;45183;-67
2022/04/14 06:15:19;;;;;;;;;23.33;22.00;;;;;16.06;65.67;101648.97;5119866;27;45240;-67
2022/04/14 06:17:45;;;;;;;;;23.00;21.67;;;;;16.39;65.62;101694.75;5120971;27;45314;-66
2022/04/14 06:20:12;;;;;;;;;25.67;22.33;;;;;16.42;65.33;101689.09;5115219;27;45755;-66
2022/04/14 06:22:39;;;;;;;;;23.00;23.00;;;;;16.40;65.17;101675.81;5096334;27;45415;-71
2022/04/14 06:25:06;;;;;;;;;27.33;23.00;;;;;16.54;65.02;101689.66;5120911;27;45422;-72
2022/04/14 06:27:32;;;;;;;;;22.67;20.33;;;;;16.74;64.85;101693.81;5115746;27;45518;-66
2022/04/14 06:29:57;;;;;;;;;57.50;46.25;;;;;17.02;64.24;101700.66;5099599;27;46829;-67
2022/04/14 06:32:23;;;;;;;;;29.33;28.33;;;;;17.29;63.25;101699.56;5099870;27;45235;-67
2022/04/14 06:34:48;;;;;;;;;31.67;31.00;;;;;17.63;62.90;101703.97;5100079;27;45586;-67
2022/04/14 06:37:13;;;;;;;;;17.67;16.67;;;;;18.02;61.53;101695.25;5081714;27;45530;-66
2022/04/14 06:39:39;;;;;;;;;25.33;25.33;;;;;18.58;60.17;101704.22;5081573;27;45914;-66
2022/04/14 06:42:05;;;;;;;;;33.67;30.33;;;;;19.06;58.71;101716.72;5081297;27;45329;-66
2022/04/14 06:44:30;;;;;;;;;31.00;30.67;;;;;18.91;57.49;101648.41;5099832;27;45500;-67
2022/04/14 06:46:56;;;;;;;;;33.33;29.33;;;;;19.35;56.89;101710.66;5099801;27;45424;-65
2022/04/14 06:49:21;;;;;;;;;33.00;32.00;;;;;19.33;56.66;101720.78;5101784;27;46752;-68
2022/04/14 06:51:46;;;;;;;;;30.00;28.67;;;;;19.37;56.94;101728.34;5100596;27;45548;-71
2022/04/14 06:54:12;;;;;;;;;31.33;30.33;;;;;19.35;56.60;101722.28;5102632;27;45489;-69
2022/04/14 06:56:37;;;;;;;;;25.00;24.33;;;;;19.31;56.10;101714.72;5111344;27;45472;-70
2022/04/14 06:59:03;;;;;;;;;26.67;26.67;;;;;19.40;56.13;101716.34;5083378;27;48057;-70
2022/04/14 07:01:28;;;;;;;;;30.00;30.00;;;;;19.59;55.81;101737.50;5108744;27;45433;-70
2022/04/14 07:03:54;;;;;;;;;36.67;31.33;;;;;19.55;55.69;101738.88;5087654;27;45397;-68
2022/04/14 07:06:19;;;;;;;;;35.00;31.00;;;;;19.42;55.63;101719.69;5105590;27;45469;-71
2022/04/14 07:08:44;;;;;;;;;30.67;29.00;;;;;19.22;55.35;101722.03;5099690;27;46560;-70
2022/04/14 07:11:10;;;;;;;;;35.00;30.33;;;;;19.24;56.01;101740.72;5104145;27;45296;-69
2022/04/14 07:13:39;;;;;;;;;30.67;27.67;;;;;19.25;55.84;101742.41;5109630;27;45485;-71
2022/04/14 07:16:05;;;;;;;;;34.00;31.33;;;;;19.33;55.76;101734.25;5099508;27;45420;-69
2022/04/14 07:18:30;;;;;;;;;30.67;29.33;;;;;19.36;55.32;101733.91;5099571;27;45698;-68
2022/04/14 07:21:25;;;;;;;;;32.67;29.33;;;;;19.21;55.28;101722.19;5115823;27;45426;-71
2022/04/14 07:24:13;;;;;;;;;27.67;26.67;;;;;19.20;55.50;101734.81;5106510;27;45632;-71
2022/04/14 07:26:38;;;;;;;;;24.33;22.67;;;;;19.07;55.61;101734.56;5074420;27;45608;-71
2022/04/14 07:29:04;;;;;;;;;31.00;31.00;;;;;18.98;55.87;101736.44;5099928;27;46353;-70
2022/04/14 07:31:33;;;;;;;;;32.33;29.00;;;;;18.68;56.28;101727.31;5103055;27;45500;-71
2022/04/14 07:33:59;;;;;;;;;35.00;31.50;;;;;18.74;56.09;101755.41;5118384;27;45423;-70
2022/04/14 07:36:28;;;;;;;;;30.67;29.00;;;;;18.55;56.68;101740.44;5087053;27;45532;-69
2022/04/14 07:38:56;;;;;;;;;30.67;30.00;;;;;18.29;56.86;101700.28;5098870;27;45446;-69
2022/04/14 07:41:22;;;;;;;;;34.00;31.33;;;;;18.50;56.64;101703.25;5106551;27;45645;-69
2022/04/14 07:43:47;;;;;;;;;31.67;30.00;;;;;18.75;56.49;101724.75;5100413;27;45468;-69
2022/04/14 07:46:13;;;;;;;;;36.67;33.33;;;;;18.96;56.18;101749.25;5118740;27;45454;-69
2022/04/14 07:48:38;;;;;;;;;35.67;32.67;;;;;19.05;55.77;101740.16;5111783;27;45760;-70
2022/04/14 07:51:07;;;;;;;;;35.67;33.00;;;;;19.15;55.77;101759.63;5109918;27;45322;-70
2022/04/14 07:53:33;;;;;;;;;38.00;32.67;;;;;19.17;55.59;101756.75;5098330;27;45477;-71
2022/04/14 07:55:59;;;;;;;;;36.00;33.00;;;;;19.11;55.56;101768.25;5098825;27;45304;-69
2022/04/14 07:58:24;;;;;;;;;33.67;30.00;;;;;18.83;55.78;101749.00;5080406;27;47794;-70
2022/04/14 08:00:52;;;;;;;;;45.33;37.67;;;;;18.92;56.13;101764.09;5106077;27;45291;-70
2022/04/14 08:03:18;;;;;;;;;39.33;31.00;;;;;19.00;55.76;101761.38;5097550;27;45361;-71
2022/04/14 08:05:45;;;;;;;;;29.67;27.00;;;;;19.18;54.36;101757.59;5108009;27;45406;-71
2022/04/14 08:08:14;;;;;;;;;34.00;31.33;;;;;19.18;54.64;101763.81;5104525;27;45546;-72
2022/04/14 08:10:42;;;;;;;;;33.67;29.67;;;;;19.56;54.22;101769.38;5080464;27;45589;-71
2022/04/14 08:13:07;;;;;;;;;38.67;34.33;;;;;19.85;53.25;101739.03;5085876;27;45505;-71
2022/04/14 08:15:33;;;;;;;;;31.67;30.33;;;;;20.28;52.76;101751.81;5095355;27;45497;-71
2022/04/14 08:18:00;;;;;;;;;37.67;32.00;;;;;20.92;51.76;101757.56;5118157;27;46560;-72
2022/04/14 08:20:27;;;;;;;;;37.33;35.33;;;;;21.55;50.04;101757.94;5107610;27;45327;-70
2022/04/14 08:22:57;;;;;;;;;33.67;32.67;;;;;22.13;48.54;101754.16;5108226;27;45500;-70
2022/04/14 08:25:31;;;;;;;;;36.67;32.67;;;;;22.69;47.30;101748.75;5099413;27;45588;-70
2022/04/14 08:27:59;;;;;;;;;35.33;32.00;;;;;22.98;44.37;101747.66;5075579;28;49421;-70
2022/04/14 08:30:26;;;;;;;;;28.67;26.33;;;;;23.33;43.90;101732.16;5078291;27;45344;-72
2022/04/14 08:32:53;;;;;;;;;26.67;25.00;;;;;23.88;42.79;101760.09;5077581;27;45462;-70
2022/04/14 08:35:19;;;;;;;;;41.67;37.67;;;;;24.30;41.32;101766.22;5087296;27;45400;-70
2022/04/14 08:37:46;;;;;;;;;42.33;36.67;;;;;24.37;41.21;101739.84;5092897;27;46360;-71
2022/04/14 08:40:17;;;;;;;;;37.33;34.00;;;;;24.71;40.80;101744.19;5077149;27;45345;-73
2022/04/14 08:42:52;;;;;;;;;35.33;30.67;;;;;25.28;39.73;101767.03;5077169;27;45294;-70
2022/04/14 08:45:22;;;;;;;;;35.67;29.00;;;;;25.72;38.97;101765.38;5078079;27;45461;-72
2022/04/14 08:47:50;;;;;;;;;34.00;30.33;;;;;26.07;37.33;101763.03;5083391;27;45685;-71
2022/04/14 08:50:16;;;;;;;;;34.67;31.33;;;;;26.26;37.56;101726.59;5075552;28;45991;-72
2022/04/14 08:52:41;;;;;;;;;30.00;29.00;;;;;26.53;35.78;101753.63;5080798;27;45343;-70
2022/04/14 08:55:10;;;;;;;;;33.00;29.33;;;;;26.82;36.12;101755.59;5097981;27;45485;-71
2022/04/14 08:57:37;;;;;;;;;31.33;28.67;;;;;27.28;34.63;101762.44;5083515;27;46210;-70
2022/04/14 09:00:06;;;;;;;;;31.67;28.33;;;;;27.23;34.71;101751.34;5076803;27;45518;-71
2022/04/14 09:02:33;;;;;;;;;31.67;30.67;;;;;27.49;34.49;101756.47;5090862;27;45529;-72
2022/04/14 09:04:59;;;;;;;;;30.33;28.00;;;;;27.85;33.73;101747.38;5082208;27;45492;-72
2022/04/14 09:07:25;;;;;;;;;32.33;30.00;;;;;28.22;32.04;101760.00;5084404;27;46429;-71
2022/04/14 09:09:51;;;;;;;;;33.33;29.33;;;;;28.36;32.47;101745.88;5076639;27;45549;-70
2022/04/14 09:12:17;;;;;;;;;34.33;30.33;;;;;28.98;32.09;101757.16;5077186;27;45362;-71
2022/04/14 09:14:42;;;;;;;;;30.33;28.67;;;;;29.84;30.15;101759.94;5077328;27;45408;-70
2022/04/14 09:17:11;;;;;;;;;30.67;30.67;;;;;30.21;28.91;101760.28;5076542;27;46132;-70
2022/04/14 09:19:38;;;;;;;;;24.33;22.67;;;;;30.55;28.49;101745.44;5076390;27;45373;-71
2022/04/14 09:22:10;;;;;;;;;28.00;26.00;;;;;31.15;26.25;101722.63;5088015;27;45436;-70
2022/04/14 09:24:39;;;;;;;;;22.33;22.33;;;;;31.48;25.89;101731.81;5077129;27;45313;-71
2022/04/14 09:27:05;;;;;;;;;27.67;23.00;;;;;32.55;25.51;101736.28;5090876;27;45691;-71
2022/04/14 09:29:31;;;;;;;;;24.67;21.00;;;;;33.44;24.74;101753.75;5097990;27;45429;-72
2022/04/14 09:31:56;;;;;;;;;26.67;25.00;;;;;34.16;23.21;101741.69;5098916;27;45488;-72
2022/04/14 09:34:54;;;;;;;;;23.00;23.00;;;;;34.96;23.33;101761.97;5094517;27;45434;-72
2022/04/14 09:37:23;;;;;;;;;23.00;22.00;;;;;36.00;21.66;101750.00;5114280;27;45515;-71
2022/04/14 09:40:11;;;;;;;;;24.00;21.67;;;;;36.58;20.34;101761.88;5115463;27;45337;-71
2022/04/14 09:42:43;;;;;;;;;28.00;26.67;;;;;37.11;19.81;101751.56;5115509;27;45485;-70
2022/04/14 09:45:29;;;;;;;;;25.00;22.67;;;;;37.73;19.19;101744.03;5098059;27;45654;-70
2022/04/14 09:48:04;;;;;;;;;26.33;26.33;;;;;37.69;19.19;101745.72;5113879;27;45582;-72
2022/04/14 09:50:40;;;;;;;;;28.67;25.67;;;;;37.42;19.07;101746.41;5102112;27;45337;-71
2022/04/14 09:53:14;;;;;;;;;23.67;21.67;;;;;37.64;19.24;101745.78;5106325;27;45417;-72
2022/04/14 09:55:55;;;;;;;;;24.33;23.00;;;;;38.00;19.36;101740.50;5119643;27;45385;-71
2022/04/14 09:58:25;;;;;;;;;25.33;22.00;;;;;37.88;18.77;101692.97;5100432;27;46417;-70
2022/04/14 10:00:54;;;;;;;;;20.00;19.33;;;;;38.43;19.08;101723.59;5100632;27;45490;-70
2022/04/14 10:03:21;;;;;;;;;21.00;20.67;;;;;38.64;18.49;101705.41;5100476;27;45531;-71
2022/04/14 10:05:50;;;;;;;;;20.00;18.33;;;;;38.67;18.05;101736.53;5100510;27;45407;-69
2022/04/14 10:08:16;;;;;;;;;18.00;17.00;;;;;37.62;18.77;101731.41;5081531;27;48362;-69
2022/04/14 10:10:46;;;;;;;;;26.00;20.33;;;;;36.78;19.24;101738.66;5101147;27;45536;-72
2022/04/14 10:13:16;;;;;;;;;13.67;13.00;;;;;35.44;19.89;101704.19;5096282;27;45521;-69
2022/04/14 10:15:44;;;;;;;;;16.33;16.33;;;;;33.99;21.43;101697.81;5120783;27;45247;-68
2022/04/14 10:18:12;;;;;;;;;18.00;15.67;;;;;33.53;22.88;101728.13;5106508;27;45578;-70
2022/04/14 10:20:40;;;;;;;;;17.67;17.67;;;;;32.56;23.59;101723.34;5100274;27;45415;-69
2022/04/14 10:23:09;;;;;;;;;17.67;15.33;;;;;31.56;24.51;101738.75;5099446;27;45497;-69
2022/04/14 10:25:38;;;;;;;;;18.67;17.00;;;;;30.85;25.61;101736.84;5099732;27;45433;-69
2022/04/14 10:28:08;;;;;;;;;17.00;14.33;;;;;29.48;26.62;101729.16;5099694;27;47078;-67
2022/04/14 10:30:33;;;;;;;;;12.00;12.00;;;;;28.91;27.56;101711.81;5105440;27;45497;-67
2022/04/14 10:32:59;;;;;;;;;16.00;16.00;;;;;28.43;28.91;101716.53;5099854;27;45328;-65
2022/04/14 10:35:26;;;;;;;;;11.00;10.00;;;;;28.09;28.69;101726.34;5112003;27;45449;-67
2022/04/14 10:38:10;;;;;;;;;18.67;15.67;;;;;27.55;29.70;101720.03;5120207;27;45954;-67
2022/04/14 10:40:37;;;;;;;;;15.67;14.00;;;;;26.86;30.52;101729.53;5119505;27;45273;-67
2022/04/14 10:43:07;;;;;;;;;12.00;10.00;;;;;26.05;31.32;101680.66;5102627;27;45544;-66
2022/04/14 10:45:50;;;;;;;;;13.67;12.33;;;;;26.01;32.13;101720.28;5119124;27;45578;-65
2022/04/14 10:48:35;;;;;;;;;14.33;14.33;;;;;25.67;32.65;101717.00;5119766;27;46236;-66
2022/04/14 10:51:29;;;;;;;;;13.33;12.67;;;;;25.18;33.38;101717.66;5119360;27;45443;-67
2022/04/14 10:53:59;;;;;;;;;14.00;12.67;;;;;24.87;33.78;101721.13;5099270;27;45177;-68
2022/04/14 10:56:33;;;;;;;;;16.00;14.67;;;;;24.54;34.74;101727.50;5091934;27;45345;-65
2022/04/14 10:59:05;;;;;;;;;16.00;15.00;;;;;24.29;35.46;101710.19;5118485;27;45640;-66
2022/04/14 11:01:52;;;;;;;;;16.67;13.33;;;;;24.20;35.73;101733.13;5101292;27;45398;-66
2022/04/14 11:04:48;;;;;;;;;13.00;13.00;;;;;24.07;35.50;101725.84;5119510;27;45562;-69
2022/04/14 11:07:15;;;;;;;;;12.67;10.67;;;;;23.72;35.19;101727.91;5099360;27;45634;-67
2022/04/14 11:09:41;;;;;;;;;9.67;9.67;;;;;23.36;36.55;101723.63;5099334;27;45419;-65
2022/04/14 11:12:08;;;;;;;;;18.67;18.67;;;;;23.17;36.73;101723.56;5097822;27;45226;-66
2022/04/14 11:14:35;;;;;;;;;18.67;14.67;;;;;22.76;37.65;101725.22;5099832;27;45408;-67